Wilson Lahn — 8PUO — position and weather

sailwx.info

Track history (hours):
 
Tides and Currents Weather Stations Pressure Air Temp Water Temp Dewpoint Dewpoint Depression Visibility Wind Speed Wind Dir Waves Ship Positions

Wilson Lahn

Last reported at 2016-May-29 20:33 UTC. Time now 2016-May-29 21:10 UTC.
Position N 57°19' E 005°26'.

Length 83 m; draft 3.7 m.

Type: Cargo ship. MMSI: 314259000.

Date/timePositionNaut miles runAvg speedWind from/ knotsBaromVisibWave heightAir tempDewpointWater temp
2016-May-29 20:33N 57°19' E 005°26'1010.1
2016-May-29 19:31N 57°09' E 005°25'10 9.9
2016-May-29 18:28N 56°59' E 005°24'10 9.7
2016-May-29 17:24N 56°48' E 005°23'9 9.8
2016-May-29 16:29N 56°39' E 005°22'14410.3
2016-May-29 02:32N 54°16' E 005°10'1010.5
2016-May-29 01:33N 54°05' E 005°08'1010.5
2016-May-29 00:33N 53°55' E 005°02'1110.6
2016-May-28 23:33N 53°46' E 004°56'1110.9
2016-May-28 22:33N 53°35' E 004°50'1111.2
2016-May-28 21:33N 53°25' E 004°42'1211.7
2016-May-28 20:31N 53°14' E 004°33'1111.3
2016-May-28 19:33N 53°04' E 004°25'1110.8
2016-May-28 18:33N 52°55' E 004°17'1410.2
2016-May-28 17:11N 52°43' E 004°06'8 9.8
2016-May-28 16:21N 52°35' E 003°59'9 9.1
2016-May-28 15:24N 52°27' E 003°54'8 9.3
2016-May-28 14:33N 52°20' E 003°52'9 8.9
2016-May-28 13:33N 52°11' E 003°54'9 8.6
2016-May-28 12:33N 52°03' E 003°59'1211.7
2016-May-28 11:33N 51°55' E 004°14'7 6.8
2016-May-28 10:33N 51°54' E 004°25'0 0.0
2016-May-28 09:33N 51°54' E 004°25'0 0.0
2016-May-28 08:33N 51°54' E 004°25'0 0.0
2016-May-28 07:33N 51°54' E 004°25'0 0.0
2016-May-28 06:33N 51°54' E 004°25'0 0.0
2016-May-28 05:33N 51°54' E 004°25'0 0.0
2016-May-28 04:33N 51°54' E 004°25'0 0.0
2016-May-28 03:24N 51°54' E 004°25'4 4.8
2016-May-28 02:34N 51°54' E 004°31'9 8.9
2016-May-28 01:33N 51°49' E 004°44'66 9.2
2016-May-27 18:26N 51°40' E 006°29'  
2016-May-24 21:08N 51°36' E 006°36'4 6.6
2016-May-24 20:33N 51°39' E 006°36'65 6.5
2016-May-24 10:33N 51°49' E 004°52'8 7.8
2016-May-24 09:33N 51°51' E 004°40'7 7.3
2016-May-24 08:33N 51°54' E 004°29'3 2.4
2016-May-24 07:28N 51°55' E 004°25'0 0.0
2016-May-24 06:16N 51°55' E 004°25'0 0.0
2016-May-24 05:25N 51°55' E 004°25'0 0.0
2016-May-24 04:28N 51°55' E 004°25'0 0.0
2016-May-24 03:31N 51°55' E 004°25'0 0.0
2016-May-24 02:25N 51°55' E 004°25'0 0.0
2016-May-24 01:28N 51°55' E 004°25'0 0.0
2016-May-24 00:25N 51°55' E 004°25'0 0.0
2016-May-23 23:28N 51°55' E 004°25'0 0.0
2016-May-23 22:28N 51°55' E 004°25'0 0.0
2016-May-23 21:31N 51°55' E 004°25'0 0.0
2016-May-23 20:28N 51°55' E 004°25'0 0.0
2016-May-23 19:25N 51°55' E 004°25'0 0.0
2016-May-23 18:25N 51°55' E 004°25'0 0.0
2016-May-23 17:28N 51°55' E 004°25'0 0.0
2016-May-23 16:31N 51°55' E 004°25'0 0.0
2016-May-23 15:25N 51°55' E 004°25'0 0.0
2016-May-23 14:31N 51°55' E 004°25'0 0.0
2016-May-23 13:19N 51°55' E 004°25'0 0.0
2016-May-23 12:28N 51°55' E 004°25'0 0.0
2016-May-23 11:22N 51°55' E 004°25'0 0.0
2016-May-23 10:31N 51°55' E 004°25'0 0.0
2016-May-23 09:28N 51°55' E 004°25'3 3.6
2016-May-23 08:33N 51°54' E 004°20'8 8.2
2016-May-23 07:34N 51°58' E 004°08'10 9.9
2016-May-23 06:34N 52°01' E 003°53'104 9.5
2016-May-22 19:32N 53°41' E 004°42'10 9.8
2016-May-22 18:32N 53°50' E 004°48'11 9.9
2016-May-22 17:26N 53°60' E 004°55'1110.1
2016-May-22 16:20N 54°11' E 004°60'261 9.4
2016-May-21 12:31N 58°32' E 005°10'8 8.8
2016-May-21 11:34N 58°40' E 005°11'8 8.5
2016-May-21 10:33N 58°48' E 005°13'9 8.9
2016-May-21 09:33N 58°57' E 005°17'9 9.2
2016-May-21 08:33N 59°06' E 005°20'1010.4
2016-May-21 07:34N 59°17' E 005°20'160 8.4
2016-May-20 12:30N 61°56' E 004°42'1010.0
2016-May-20 11:31N 62°05' E 004°51'1010.6
2016-May-20 10:33N 62°13' E 005°02'13210.0
2016-May-19 21:17N 63°29' E 008°60'7 9.9
2016-May-19 20:34N 63°32' E 009°14'  
Track history (hours):
 
Tides and Currents Weather Stations Pressure Air Temp Water Temp Dewpoint Dewpoint Depression Visibility Wind Speed Wind Dir Waves Ship Positions

Wilson Lahn

Last reported at 2016-May-29 20:33 UTC. Time now 2016-May-29 21:10 UTC.
Position N 57°19' E 005°26'.

Length 83 m; draft 3.7 m.

Type: Cargo ship. MMSI: 314259000.

Date/timePositionNaut miles runAvg speedWind from/ knotsBaromVisibWave heightAir tempDewpointWater temp
2016-May-29 20:33N 57°19' E 005°26'1010.1
2016-May-29 19:31N 57°09' E 005°25'10 9.9
2016-May-29 18:28N 56°59' E 005°24'10 9.7
2016-May-29 17:24N 56°48' E 005°23'9 9.8
2016-May-29 16:29N 56°39' E 005°22'14410.3
2016-May-29 02:32N 54°16' E 005°10'1010.5
2016-May-29 01:33N 54°05' E 005°08'1010.5
2016-May-29 00:33N 53°55' E 005°02'1110.6
2016-May-28 23:33N 53°46' E 004°56'1110.9
2016-May-28 22:33N 53°35' E 004°50'1111.2
2016-May-28 21:33N 53°25' E 004°42'1211.7
2016-May-28 20:31N 53°14' E 004°33'1111.3
2016-May-28 19:33N 53°04' E 004°25'1110.8
2016-May-28 18:33N 52°55' E 004°17'1410.2
2016-May-28 17:11N 52°43' E 004°06'8 9.8
2016-May-28 16:21N 52°35' E 003°59'9 9.1
2016-May-28 15:24N 52°27' E 003°54'8 9.3
2016-May-28 14:33N 52°20' E 003°52'9 8.9
2016-May-28 13:33N 52°11' E 003°54'9 8.6
2016-May-28 12:33N 52°03' E 003°59'1211.7
2016-May-28 11:33N 51°55' E 004°14'7 6.8
2016-May-28 10:33N 51°54' E 004°25'0 0.0
2016-May-28 09:33N 51°54' E 004°25'0 0.0
2016-May-28 08:33N 51°54' E 004°25'0 0.0
2016-May-28 07:33N 51°54' E 004°25'0 0.0
2016-May-28 06:33N 51°54' E 004°25'0 0.0
2016-May-28 05:33N 51°54' E 004°25'0 0.0
2016-May-28 04:33N 51°54' E 004°25'0 0.0
2016-May-28 03:24N 51°54' E 004°25'4 4.8
2016-May-28 02:34N 51°54' E 004°31'9 8.9
2016-May-28 01:33N 51°49' E 004°44'66 9.2
2016-May-27 18:26N 51°40' E 006°29'  
2016-May-24 21:08N 51°36' E 006°36'4 6.6
2016-May-24 20:33N 51°39' E 006°36'65 6.5
2016-May-24 10:33N 51°49' E 004°52'8 7.8
2016-May-24 09:33N 51°51' E 004°40'7 7.3
2016-May-24 08:33N 51°54' E 004°29'3 2.4
2016-May-24 07:28N 51°55' E 004°25'0 0.0
2016-May-24 06:16N 51°55' E 004°25'0 0.0
2016-May-24 05:25N 51°55' E 004°25'0 0.0
2016-May-24 04:28N 51°55' E 004°25'0 0.0
2016-May-24 03:31N 51°55' E 004°25'0 0.0
2016-May-24 02:25N 51°55' E 004°25'0 0.0
2016-May-24 01:28N 51°55' E 004°25'0 0.0
2016-May-24 00:25N 51°55' E 004°25'0 0.0
2016-May-23 23:28N 51°55' E 004°25'0 0.0
2016-May-23 22:28N 51°55' E 004°25'0 0.0
2016-May-23 21:31N 51°55' E 004°25'0 0.0
2016-May-23 20:28N 51°55' E 004°25'0 0.0
2016-May-23 19:25N 51°55' E 004°25'0 0.0
2016-May-23 18:25N 51°55' E 004°25'0 0.0
2016-May-23 17:28N 51°55' E 004°25'0 0.0
2016-May-23 16:31N 51°55' E 004°25'0 0.0
2016-May-23 15:25N 51°55' E 004°25'0 0.0
2016-May-23 14:31N 51°55' E 004°25'0 0.0
2016-May-23 13:19N 51°55' E 004°25'0 0.0
2016-May-23 12:28N 51°55' E 004°25'0 0.0
2016-May-23 11:22N 51°55' E 004°25'0 0.0
2016-May-23 10:31N 51°55' E 004°25'0 0.0
2016-May-23 09:28N 51°55' E 004°25'3 3.6
2016-May-23 08:33N 51°54' E 004°20'8 8.2
2016-May-23 07:34N 51°58' E 004°08'10 9.9
2016-May-23 06:34N 52°01' E 003°53'104 9.5
2016-May-22 19:32N 53°41' E 004°42'10 9.8
2016-May-22 18:32N 53°50' E 004°48'11 9.9
2016-May-22 17:26N 53°60' E 004°55'1110.1
2016-May-22 16:20N 54°11' E 004°60'261 9.4
2016-May-21 12:31N 58°32' E 005°10'8 8.8
2016-May-21 11:34N 58°40' E 005°11'8 8.5
2016-May-21 10:33N 58°48' E 005°13'9 8.9
2016-May-21 09:33N 58°57' E 005°17'9 9.2
2016-May-21 08:33N 59°06' E 005°20'1010.4
2016-May-21 07:34N 59°17' E 005°20'160 8.4
2016-May-20 12:30N 61°56' E 004°42'1010.0
2016-May-20 11:31N 62°05' E 004°51'1010.6
2016-May-20 10:33N 62°13' E 005°02'13210.0
2016-May-19 21:17N 63°29' E 008°60'7 9.9
2016-May-19 20:34N 63°32' E 009°14'  

Dump ship's entire track history